Archival Weather

Heathrow

London, United Kingdom (EGLL)

Report from: Sunday, March 19, 2023 9:20 AM GMT
Current time: Tuesday, July 16, 2024 10:45 AM BST

Current weather – Weather history – Daily summaries
Weather forecast

Temperature9.0°C (48.2°F)
Wind chill7.0°C (44.6°F)
Dew point4.0°C (39.2°F)
Winds 7 kts (3.6 m/s, 8.1 mph) Vrb
Winds variableWinds variable from West (270°) to North-Northwest (340°)
Visibility6.2 mi. (10 km)
Clouds Scattered clouds 2,500 ft. (762 m)
Ceiling: Broken clouds 3,100 ft. (945 m)
Altimeter30.00 in.Hg (1016 mB)
Relative humidity71 %
Density altitude-692 ft. (-211 m)
Remarks Fully automated report
No significant changes expected in the next two hours
Flight conditions Visual Meteorological Conditions
Raw dataEGLL 190920Z AUTO 30007KT 270V340 9999 SCT025 BKN031 09/04 Q1016 NOSIG
An error has occurred. This application may no longer respond until reloaded. Reload 🗙